Peshtigo, Wisconsin
Current Conditions -  °F | °C
As of 10:55 PM on Wednesday 22 Oct 2014 (Local Time) from KMNM Reporting Station
Clear Clear  
Wind Chill: 36°   Ceiling: Unl
Heat Index: 39°   Visibility: 8mi
Dew Point: 37°   Wind: 5mph
Humidity: 93%   Direction: 180°S
Pressure: 30.25"   Gusts: NA
Location:  45.05°N, 87.75°W
Report Text: KMNM 230355Z AUTO 18004KT 8SM CLR 04/03 A3025 RMK AO1
Loading
Personal Weather Stations






























Interactive Weather Map
Tropical Storm Tracking
New forecast layout! Learn more

10-Day Weather Forecast

Advertisements
Track Severe Weather on mobile